.
WxDataArchive / Data Records for 2009-10-02
2009-10-01 October 2009 2009-10-03

Data Records for Friday, 02 October 2009

Time	Temp	Chill	HIndex	Humid	Dewpt	 Wind 	HiWind	WindDir	Rain 	Barom 
-----	----	-----	------	-----	-----	------	------	-------	-----	----- 
00:00	51.1	51.1	51.1	90	48.3	0	0	---	0.01	29.886 
00:05	51.0	51.0	51.0	91	48.5	0	0	---	0.01	29.886 
00:10	51.0	51.0	51.0	91	48.5	0	1	90	0.01	29.886 
00:15	51.0	51.0	51.0	92	48.8	0	0	---	0.01	29.907 
00:20	50.8	50.8	50.8	92	48.6	0	0	---	0.01	29.907 
00:25	50.7	50.7	50.7	92	48.5	0	0	---	0.02	29.907 
00:30	50.7	50.7	50.7	93	48.7	0	2	90	0.02	29.883 
00:35	50.7	50.7	50.7	93	48.7	1	3	90	0.01	29.883 
00:40	50.7	50.7	50.7	93	48.7	2	4	90	0.01	29.883 
00:45	50.5	50.5	50.5	94	48.8	2	5	112	0.01	29.835 
00:50	50.4	50.4	50.4	94	48.7	1	4	90	0.01	29.835 
00:55	50.2	50.2	50.2	94	48.5	2	6	90	0.00	29.835 
01:00	50.2	50.2	50.2	94	48.5	2	4	90	0.01	29.824 
01:05	50.1	50.1	50.1	94	48.4	2	4	90	0.00	29.824 
01:10	49.9	49.9	49.9	95	48.5	2	5	90	0.00	29.824 
01:15	49.9	49.9	49.9	95	48.5	1	4	90	0.01	29.808 
01:20	49.9	49.9	49.9	95	48.5	2	4	90	0.00	29.808 
01:25	50.1	50.1	50.1	95	48.7	3	9	90	0.01	29.808 
01:30	50.1	50.1	50.1	95	48.7	2	7	90	0.01	29.778 
01:35	50.1	50.1	50.1	95	48.7	2	5	90	0.01	29.778 
01:40	49.9	49.9	49.9	95	48.5	2	6	68	0.02	29.778 
01:45	49.9	49.9	49.9	95	48.5	2	4	90	0.01	29.789 
01:50	49.9	49.9	49.9	95	48.5	2	5	90	0.02	29.789 
01:55	49.8	49.8	49.8	95	48.4	2	7	90	0.02	29.789 
02:00	49.8	49.8	49.8	95	48.4	1	4	112	0.02	29.791 
02:05	49.8	49.8	49.8	95	48.4	2	4	90	0.01	29.791 
02:10	49.8	49.8	49.8	96	48.7	2	5	90	0.03	29.791 
02:15	49.6	49.6	49.6	96	48.5	2	7	90	0.01	29.761 
02:20	49.6	49.6	49.6	96	48.5	3	10	90	0.02	29.761 
02:25	49.6	49.6	49.6	96	48.5	3	6	90	0.01	29.761 
02:30	49.8	49.8	49.8	96	48.7	3	7	90	0.01	29.748 
02:35	49.8	48.6	49.8	96	48.7	4	9	90	0.01	29.748 
02:40	49.8	49.8	49.8	96	48.7	3	6	90	0.01	29.748 
02:45	49.8	49.8	49.8	96	48.7	3	6	90	0.00	29.734 
02:50	49.9	49.9	49.9	96	48.8	3	7	90	0.00	29.734 
02:55	49.9	48.8	49.9	96	48.8	4	11	90	0.00	29.734 
03:00	50.1	50.1	50.1	96	49.0	3	10	90	0.00	29.719 
03:05	50.1	50.1	50.1	96	49.0	4	10	90	0.00	29.719 
03:10	50.2	50.2	50.2	96	49.1	4	12	90	0.00	29.719 
03:15	50.2	50.2	50.2	96	49.1	3	7	90	0.00	29.710 
03:20	50.2	50.2	50.2	96	49.1	2	7	112	0.01	29.710 
03:25	50.4	50.4	50.4	96	49.3	3	10	68	0.00	29.710 
03:30	50.4	50.4	50.4	96	49.3	3	9	68	0.01	29.696 
03:35	50.5	50.5	50.5	96	49.4	2	5	68	0.02	29.696 
03:40	50.5	50.5	50.5	96	49.4	3	9	90	0.03	29.696 
03:45	50.5	50.5	50.5	96	49.4	3	9	90	0.03	29.680 
03:50	50.5	50.5	50.5	96	49.4	2	6	90	0.01	29.680 
03:55	50.5	50.5	50.5	96	49.4	2	6	90	0.00	29.680 
04:00	50.5	50.5	50.5	96	49.4	4	10	90	0.00	29.676 
04:05	50.5	50.5	50.5	96	49.4	3	7	90	0.00	29.676 
04:10	50.7	50.7	50.7	96	49.6	4	11	90	0.00	29.676 
04:15	50.7	50.7	50.7	96	49.6	3	9	90	0.00	29.671 
04:20	50.7	50.7	50.7	96	49.6	3	11	112	0.00	29.671 
04:25	50.8	50.8	50.8	96	49.7	2	7	112	0.02	29.671 
04:30	50.8	50.8	50.8	96	49.7	3	7	112	0.01	29.661 
04:35	51.0	51.0	51.0	96	49.9	2	5	112	0.00	29.661 
04:40	51.0	51.0	51.0	96	49.9	2	5	112	0.00	29.661 
04:45	51.0	51.0	51.0	96	49.9	2	6	90	0.00	29.657 
04:50	51.1	51.1	51.1	96	50.0	4	13	90	0.00	29.657 
04:55	51.1	51.1	51.1	96	50.0	2	7	90	0.01	29.657 
05:00	51.3	51.3	51.3	96	50.2	1	3	90	0.00	29.653 
05:05	51.3	51.3	51.3	96	50.2	2	6	90	0.00	29.653 
05:10	51.3	51.3	51.3	96	50.2	2	5	90	0.00	29.653 
05:15	51.3	51.3	51.3	96	50.2	1	6	112	0.01	29.643 
05:20	51.4	51.4	51.4	96	50.3	2	4	90	0.01	29.643 
05:25	51.4	51.4	51.4	96	50.3	1	6	90	0.00	29.643 
05:30	51.4	51.4	51.4	96	50.3	1	4	112	0.00	29.633 
05:35	51.4	51.4	51.4	96	50.3	2	7	68	0.01	29.633 
05:40	51.4	51.4	51.4	97	50.6	1	5	90	0.00	29.633 
05:45	51.6	51.6	51.6	97	50.8	1	4	135	0.02	29.632 
05:50	51.6	51.6	51.6	97	50.8	1	4	45	0.01	29.632 
05:55	51.6	51.6	51.6	97	50.8	1	6	90	0.02	29.632 
06:00	51.6	51.6	51.6	97	50.8	1	3	90	0.01	29.624 
06:05	51.6	51.6	51.6	97	50.8	2	6	90	0.00	29.624 
06:10	51.6	51.6	51.6	97	50.8	1	4	90	0.01	29.624 
06:15	51.6	51.6	51.6	97	50.8	1	4	112	0.00	29.620 
06:20	51.6	51.6	51.6	97	50.8	1	5	22	0.00	29.620 
06:25	51.6	51.6	51.6	97	50.8	2	5	90	0.01	29.620 
06:30	51.6	51.6	51.6	97	50.8	1	4	90	0.02	29.606 
06:35	51.6	51.6	51.6	97	50.8	1	4	90	0.01	29.606 
06:40	51.6	51.6	51.6	97	50.8	1	3	68	0.01	29.606 
06:45	51.6	51.6	51.6	97	50.8	2	5	68	0.00	29.601 
06:50	51.6	51.6	51.6	97	50.8	3	9	90	0.00	29.601 
06:55	51.6	51.6	51.6	97	50.8	2	6	68	0.00	29.601 
07:00	51.6	51.6	51.6	97	50.8	1	4	68	0.00	29.588 
07:05	51.7	51.7	51.7	97	50.9	2	6	68	0.00	29.588 
07:10	51.7	51.7	51.7	97	50.9	2	7	90	0.00	29.588 
07:15	51.7	51.7	51.7	97	50.9	2	4	90	0.00	29.589 
07:20	51.7	51.7	51.7	97	50.9	1	3	90	0.00	29.589 
07:25	51.7	51.7	51.7	97	50.9	1	3	112	0.00	29.589 
07:30	51.9	51.9	51.9	97	51.1	1	5	68	0.00	29.585 
07:35	51.9	51.9	51.9	97	51.1	1	3	68	0.01	29.585 
07:40	52.0	52.0	52.0	97	51.2	1	4	112	0.00	29.585 
07:45	52.0	52.0	52.0	97	51.2	1	4	112	0.01	29.574 
07:50	52.2	52.2	52.2	97	51.4	1	3	112	0.00	29.574 
07:55	52.3	52.3	52.3	97	51.5	0	3	112	0.00	29.574 
08:00	52.5	52.5	52.5	97	51.7	1	3	68	0.00	29.572 
08:05	52.6	52.6	52.6	97	51.8	0	3	135	0.00	29.572 
08:10	52.6	52.6	52.6	97	51.8	0	2	135	0.01	29.572 
08:15	52.8	52.8	52.8	97	52.0	1	3	135	0.00	29.572 
08:20	52.9	52.9	52.9	97	52.1	0	3	112	0.00	29.572 
08:25	53.1	53.1	53.1	97	52.3	0	1	112	0.00	29.572 
08:30	53.2	53.2	53.2	97	52.4	0	2	112	0.01	29.571 
08:35	53.3	53.3	53.3	97	52.5	0	2	112	0.00	29.571 
08:40	53.5	53.5	53.5	97	52.7	0	2	112	0.00	29.571 
08:45	53.8	53.8	53.8	97	53.0	1	3	112	0.00	29.565 
08:50	53.9	53.9	53.9	97	53.1	0	1	112	0.00	29.565 
08:55	54.1	54.1	54.1	97	53.3	0	3	315	0.00	29.565 
09:00	54.4	54.4	54.4	97	53.6	0	1	315	0.00	29.559 
09:05	54.5	54.5	54.5	97	53.7	0	1	315	0.00	29.559 
09:10	54.7	54.7	54.7	97	53.9	0	2	315	0.00	29.559 
09:15	54.8	54.8	54.8	97	54.0	0	2	270	0.00	29.559 
09:20	55.0	55.0	55.0	97	54.2	0	2	270	0.00	29.559 
09:25	55.1	55.1	55.1	97	54.3	0	2	270	0.00	29.559 
09:30	55.4	55.4	55.4	97	54.6	1	2	225	0.00	29.558 
09:35	55.7	55.7	55.7	97	54.9	1	4	225	0.00	29.558 
09:40	56.0	56.0	56.0	97	55.2	1	2	248	0.00	29.558 
09:45	56.2	56.2	56.2	97	55.4	1	4	248	0.00	29.558 
09:50	56.0	56.0	56.0	97	55.2	2	5	248	0.00	29.558 
09:55	56.0	56.0	56.0	97	55.2	2	4	270	0.00	29.558 
10:00	55.9	55.9	55.9	97	55.1	2	5	270	0.00	29.556 
10:05	55.6	55.6	55.6	97	54.8	3	6	270	0.00	29.556 
10:10	55.6	55.6	55.6	97	54.8	2	5	270	0.00	29.556 
10:15	55.6	55.6	55.6	97	54.8	1	5	270	0.00	29.559 
10:20	55.1	55.1	55.1	97	54.3	2	6	270	0.00	29.559 
10:25	54.8	54.8	54.8	96	53.7	3	5	270	0.00	29.559 
10:30	55.1	55.1	55.1	96	54.0	2	6	248	0.00	29.559 
10:35	55.4	55.4	55.4	96	54.3	2	5	270	0.00	29.559 
10:40	55.7	55.7	55.7	95	54.3	1	4	270	0.00	29.559 
10:45	55.9	55.9	55.9	94	54.2	2	6	248	0.00	29.563 
10:50	55.6	55.6	55.6	92	53.3	2	5	270	0.00	29.563 
10:55	55.4	55.4	55.4	91	52.8	3	7	270	0.00	29.563 
11:00	55.4	55.4	55.4	87	51.6	4	11	248	0.00	29.571 
11:05	55.4	55.4	55.4	84	50.6	3	9	292	0.00	29.571 
11:10	55.6	55.6	55.6	82	50.2	3	6	248	0.00	29.571 
11:15	56.2	56.2	56.2	80	50.1	2	6	248	0.00	29.573 
11:20	57.0	57.0	57.0	77	49.9	2	6	270	0.00	29.573 
11:25	57.8	57.8	57.8	75	49.9	2	5	292	0.00	29.573 
11:30	57.8	57.8	57.8	73	49.2	2	6	270	0.00	29.575 
11:35	57.3	57.3	57.3	69	47.2	2	6	270	0.00	29.575 
11:40	56.9	56.9	56.9	71	47.6	2	5	248	0.00	29.575 
11:45	56.6	56.6	56.6	69	46.5	3	6	270	0.00	29.574 
11:50	56.3	56.3	56.3	69	46.3	3	6	248	0.00	29.574 
11:55	56.2	56.2	56.2	69	46.2	2	5	248	0.00	29.574 
12:00	56.0	56.0	56.0	69	46.0	3	7	270	0.00	29.582 
12:05	56.0	56.0	56.0	69	46.0	2	5	248	0.00	29.582 
12:10	56.3	56.3	56.3	66	45.1	3	7	270	0.00	29.582 
12:15	57.0	57.0	57.0	66	45.8	2	6	270	0.00	29.584 
12:20	58.3	58.3	58.3	65	46.6	2	6	248	0.00	29.584 
12:25	58.9	58.9	58.9	61	45.5	3	9	248	0.00	29.584 
12:30	58.4	58.4	58.4	61	45.0	3	7	270	0.00	29.583 
12:35	58.1	58.1	58.1	61	44.7	2	9	270	0.00	29.583 
12:40	57.8	57.8	57.8	60	44.0	2	5	270	0.00	29.583 
12:45	57.5	57.5	57.5	59	43.3	3	7	270	0.00	29.580 
12:50	57.5	57.5	57.5	60	43.7	2	6	270	0.00	29.580 
12:55	58.0	58.0	58.0	61	44.6	2	7	270	0.00	29.580 
13:00	58.9	58.9	58.9	63	46.3	2	7	270	0.00	29.573 
13:05	59.3	59.3	59.3	58	44.5	3	9	270	0.00	29.573 
13:10	59.2	59.2	59.2	56	43.5	3	10	270	0.00	29.573 
13:15	59.0	59.0	59.0	57	43.8	2	4	248	0.00	29.572 
13:20	59.3	59.3	59.3	59	45.0	2	5	270	0.00	29.572 
13:25	59.2	59.2	59.2	59	44.9	3	7	248	0.00	29.572 
13:30	58.6	58.6	58.6	58	43.9	3	7	270	0.00	29.572 
13:35	58.3	58.3	58.3	61	44.9	1	5	270	0.00	29.572 
13:40	58.1	58.1	58.1	62	45.1	1	4	248	0.00	29.572 
13:45	58.3	58.3	58.3	61	44.9	3	8	248	0.00	29.572 
13:50	58.7	58.7	58.7	56	43.0	3	7	270	0.00	29.572 
13:55	59.2	59.2	59.2	55	43.0	3	6	270	0.00	29.572 
14:00	59.6	59.6	59.6	54	42.9	2	5	292	0.00	29.563 
14:05	59.5	59.5	59.5	54	42.8	3	7	270	0.00	29.563 
14:10	58.7	58.7	58.7	56	43.0	3	7	270	0.00	29.563 
14:15	58.1	58.1	58.1	56	42.5	3	7	270	0.00	29.564 
14:20	58.3	58.3	58.3	58	43.6	2	5	248	0.00	29.564 
14:25	58.6	58.6	58.6	55	42.5	4	7	270	0.00	29.564 
14:30	58.1	58.1	58.1	55	42.0	3	6	270	0.00	29.567 
14:35	58.0	58.0	58.0	54	41.4	3	7	248	0.00	29.567 
14:40	58.0	58.0	58.0	54	41.4	3	6	248	0.00	29.567 
14:45	57.8	57.8	57.8	53	40.8	3	6	270	0.00	29.572 
14:50	57.6	57.6	57.6	52	40.1	4	9	270	0.00	29.572 
14:55	57.5	57.5	57.5	53	40.5	3	15	248	0.00	29.572 
15:00	57.5	57.5	57.5	53	40.5	2	7	270	0.00	29.575 
15:05	57.5	57.5	57.5	52	40.0	2	7	248	0.00	29.575 
15:10	57.5	57.5	57.5	51	39.5	2	7	248	0.00	29.575 
15:15	57.3	57.3	57.3	53	40.3	2	6	270	0.00	29.579 
15:20	57.2	57.2	57.2	52	39.7	3	6	270	0.00	29.579 
15:25	57.0	57.0	57.0	52	39.5	3	6	270	0.00	29.579 
15:30	56.9	56.9	56.9	53	39.9	2	6	248	0.00	29.583 
15:35	56.5	56.5	56.5	53	39.6	2	5	270	0.00	29.583 
15:40	56.3	56.3	56.3	54	39.9	3	5	270	0.00	29.583 
15:45	56.2	56.2	56.2	55	40.2	1	4	248	0.00	29.591 
15:50	56.2	56.2	56.2	55	40.2	2	3	270	0.00	29.591 
15:55	56.2	56.2	56.2	55	40.2	1	5	292	0.00	29.591 
16:00	56.2	56.2	56.2	54	39.8	2	5	248	0.00	29.591 
16:05	56.3	56.3	56.3	55	40.3	2	7	270	0.00	29.591 
16:10	56.6	56.6	56.6	55	40.6	1	3	248	0.00	29.591 
16:15	56.7	56.7	56.7	54	40.2	1	3	248	0.00	29.592 
16:20	56.6	56.6	56.6	54	40.1	2	7	270	0.00	29.592 
16:25	56.5	56.5	56.5	53	39.6	3	7	270	0.00	29.592 
16:30	56.0	56.0	56.0	54	39.6	2	6	248	0.00	29.604 
16:35	55.9	55.9	55.9	55	40.0	2	4	292	0.00	29.604 
16:40	55.7	55.7	55.7	55	39.8	2	5	248	0.00	29.604 
16:45	55.7	55.7	55.7	56	40.2	2	4	270	0.00	29.606 
16:50	55.7	55.7	55.7	56	40.2	1	5	270	0.00	29.606 
16:55	55.7	55.7	55.7	56	40.2	2	4	248	0.00	29.606 
17:00	55.7	55.7	55.7	56	40.2	1	5	270	0.00	29.606 
17:05	55.7	55.7	55.7	57	40.7	1	4	248	0.00	29.606 
17:10	55.6	55.6	55.6	56	40.2	2	4	292	0.00	29.606 
17:15	55.6	55.6	55.6	57	40.6	1	3	270	0.00	29.609 
17:20	55.4	55.4	55.4	58	40.9	1	4	270	0.00	29.609 
17:25	55.3	55.3	55.3	58	40.8	1	4	248	0.00	29.609 
17:30	55.3	55.3	55.3	58	40.8	1	3	270	0.00	29.618 
17:35	55.1	55.1	55.1	57	40.1	1	5	270	0.00	29.618 
17:40	55.1	55.1	55.1	57	40.1	1	4	248	0.00	29.618 
17:45	55.0	55.0	55.0	57	40.0	1	4	270	0.00	29.623 
17:50	54.8	54.8	54.8	58	40.3	1	5	270	0.00	29.623 
17:55	54.7	54.7	54.7	58	40.2	0	2	225	0.00	29.623 
18:00	54.5	54.5	54.5	58	40.0	1	5	292	0.00	29.632 
18:05	54.5	54.5	54.5	58	40.0	1	5	270	0.00	29.632 
18:10	54.5	54.5	54.5	59	40.5	1	3	292	0.00	29.632 
18:15	54.4	54.4	54.4	58	39.9	1	4	248	0.00	29.639 
18:20	54.2	54.2	54.2	59	40.2	0	2	202	0.00	29.639 
18:25	54.2	54.2	54.2	59	40.2	1	3	225	0.00	29.639 
18:30	54.2	54.2	54.2	60	40.6	0	3	270	0.00	29.645 
18:35	54.1	54.1	54.1	60	40.5	0	1	270	0.00	29.645 
18:40	53.9	53.9	53.9	61	40.8	0	1	270	0.00	29.645 
18:45	53.9	53.9	53.9	61	40.8	0	2	270	0.00	29.649 
18:50	53.8	53.8	53.8	62	41.1	0	1	270	0.00	29.649 
18:55	53.6	53.6	53.6	62	40.9	0	1	270	0.00	29.649 
19:00	53.5	53.5	53.5	64	41.6	0	0	---	0.00	29.654 
19:05	53.3	53.3	53.3	64	41.4	0	0	---	0.00	29.654 
19:10	53.2	53.2	53.2	65	41.7	0	0	---	0.00	29.654 
19:15	53.2	53.2	53.2	65	41.7	0	0	---	0.00	29.655 
19:20	53.1	53.1	53.1	66	42.0	0	0	---	0.00	29.655 
19:25	52.9	52.9	52.9	66	41.9	0	1	270	0.00	29.655 
19:30	52.9	52.9	52.9	67	42.2	0	0	---	0.00	29.657 
19:35	52.8	52.8	52.8	68	42.5	0	0	---	0.00	29.657 
19:40	52.6	52.6	52.6	67	42.0	0	0	---	0.00	29.657 
19:45	52.6	52.6	52.6	68	42.3	0	0	---	0.00	29.657 
19:50	52.6	52.6	52.6	69	42.7	0	0	---	0.00	29.657 
19:55	52.5	52.5	52.5	69	42.6	0	0	---	0.00	29.657 
20:00	52.5	52.5	52.5	70	43.0	0	1	270	0.00	29.655 
20:05	52.5	52.5	52.5	71	43.4	0	0	---	0.00	29.655 
20:10	52.3	52.3	52.3	72	43.5	0	0	---	0.00	29.655 
20:15	52.3	52.3	52.3	72	43.5	0	0	---	0.00	29.659 
20:20	52.2	52.2	52.2	73	43.8	0	0	---	0.00	29.659 
20:25	52.2	52.2	52.2	74	44.2	0	0	---	0.00	29.659 
20:30	52.0	52.0	52.0	75	44.3	0	0	---	0.00	29.667 
20:35	51.9	51.9	51.9	75	44.2	0	0	---	0.00	29.667 
20:40	51.9	51.9	51.9	75	44.2	0	0	---	0.00	29.667 
20:45	51.7	51.7	51.7	75	44.0	0	0	---	0.00	29.668 
20:50	51.7	51.7	51.7	75	44.0	0	0	---	0.00	29.668 
20:55	51.6	51.6	51.6	75	43.9	0	0	---	0.00	29.668 
21:00	51.6	51.6	51.6	74	43.6	0	0	---	0.00	29.669 
21:05	51.6	51.6	51.6	74	43.6	0	0	---	0.00	29.669 
21:10	51.6	51.6	51.6	74	43.6	0	0	---	0.00	29.669 
21:15	51.6	51.6	51.6	74	43.6	0	0	---	0.00	29.667 
21:20	51.6	51.6	51.6	73	43.2	0	0	---	0.00	29.667 
21:25	51.6	51.6	51.6	72	42.9	0	1	270	0.00	29.667 
21:30	51.7	51.7	51.7	72	43.0	0	0	---	0.00	29.668 
21:35	51.7	51.7	51.7	73	43.3	0	0	---	0.00	29.668 
21:40	51.7	51.7	51.7	73	43.3	0	0	---	0.00	29.668 
21:45	51.7	51.7	51.7	73	43.3	0	0	---	0.00	29.666 
21:50	51.7	51.7	51.7	72	43.0	0	1	270	0.00	29.666 
21:55	51.7	51.7	51.7	72	43.0	0	1	270	0.00	29.666 
22:00	51.9	51.9	51.9	72	43.2	0	0	---	0.00	29.669 
22:05	51.9	51.9	51.9	73	43.5	0	0	---	0.00	29.669 
22:10	51.9	51.9	51.9	73	43.5	0	0	---	0.00	29.669 
22:15	51.9	51.9	51.9	73	43.5	0	1	270	0.00	29.674 
22:20	51.9	51.9	51.9	73	43.5	0	1	270	0.00	29.674 
22:25	51.9	51.9	51.9	73	43.5	0	1	270	0.00	29.674 
22:30	51.9	51.9	51.9	72	43.2	0	2	270	0.00	29.683 
22:35	51.9	51.9	51.9	71	42.8	0	2	248	0.00	29.683 
22:40	52.0	52.0	52.0	70	42.5	0	1	248	0.00	29.683 
22:45	52.3	52.3	52.3	69	42.4	0	2	248	0.00	29.678 
22:50	52.5	52.5	52.5	69	42.6	0	2	248	0.00	29.678 
22:55	52.8	52.8	52.8	67	42.1	1	5	270	0.00	29.678 
23:00	52.9	52.9	52.9	66	41.9	0	2	270	0.00	29.672 
23:05	53.1	53.1	53.1	66	42.0	0	2	270	0.00	29.672 
23:10	53.1	53.1	53.1	66	42.0	0	1	270	0.00	29.672 
23:15	53.1	53.1	53.1	66	42.0	0	1	270	0.00	29.671 
23:20	53.1	53.1	53.1	66	42.0	0	3	270	0.00	29.671 
23:25	52.9	52.9	52.9	66	41.9	0	3	248	0.00	29.671 
23:30	52.9	52.9	52.9	67	42.2	0	1	248	0.00	29.669 
23:35	52.9	52.9	52.9	67	42.2	0	1	248	0.00	29.669 
23:40	52.8	52.8	52.8	68	42.5	0	0	---	0.00	29.669 
23:45	52.6	52.6	52.6	68	42.3	0	1	248	0.00	29.666 
23:50	52.5	52.5	52.5	68	42.2	0	1	248	0.00	29.666 
23:55	52.5	52.5	52.5	68	42.2	0	1	248	0.00	29.666 

CoCoRaHS
IN-AL-39
A2 Web Hosting
Creative Commons License
GoDaddy
search engine by freefind advanced

loaded 2018-11-16 00:09:29 • last modified 2010-11-18 10:43:29
Privacy PolicyDisclaimer
• wx.awcolley.com is powered by PmWiki v.2002016 •
• all content (unless otherwise noted) © 2018 A W Colley